Time;durP1;ratioP1;P1;durP2;ratioP2;P2;SDS_P1;SDS_P2;PMS_P1;PMS_P2;Temp;Humidity;BMP_temperature;BMP_pressure;BME280_temperature;BME280_humidity;BME280_pressure;Samples;Min_cycle;Max_cycle;Signal;HPM_P1;HPM_P2
2022/05/16 04:02:26;;;;;;;7.30;4.35;;;13.10;99.90;;;;;;5164568;22;20456;-74
2022/05/16 04:04:51;;;;;;;7.78;4.13;;;13.10;99.90;;;;;;5094038;28;20036;-74
2022/05/16 04:07:18;;;;;;;6.05;4.18;;;13.10;99.90;;;;;;5082782;28;20036;-74
2022/05/16 04:09:43;;;;;;;5.30;4.80;;;13.10;99.90;;;;;;5083014;28;20535;-75
2022/05/16 04:12:09;;;;;;;8.25;5.13;;;13.20;99.90;;;;;;5076941;28;20064;-74
2022/05/16 04:14:35;;;;;;;6.97;4.57;;;13.20;99.90;;;;;;5075506;22;20108;-74
2022/05/16 04:17:00;;;;;;;9.45;5.28;;;13.30;99.90;;;;;;5034859;28;20044;-74
2022/05/16 04:19:26;;;;;;;12.25;5.45;;;13.40;99.90;;;;;;5036921;28;20034;-74
2022/05/16 04:21:51;;;;;;;9.60;5.25;;;13.40;99.90;;;;;;5018478;28;20542;-74
2022/05/16 04:24:17;;;;;;;8.88;5.50;;;13.50;99.90;;;;;;5036061;28;20499;-74
2022/05/16 04:26:43;;;;;;;6.15;4.97;;;13.60;99.90;;;;;;5037135;28;20529;-74
2022/05/16 04:29:09;;;;;;;7.88;5.15;;;13.70;99.90;;;;;;5036960;28;20045;-74
2022/05/16 04:31:34;;;;;;;9.23;5.38;;;13.90;99.90;;;;;;5037022;28;20085;-74
2022/05/16 04:34:00;;;;;;;6.15;4.90;;;14.00;99.90;;;;;;5018262;28;20175;-74
2022/05/16 04:36:25;;;;;;;6.85;5.03;;;14.10;99.90;;;;;;5036628;28;20105;-74
2022/05/16 04:38:51;;;;;;;7.82;4.90;;;14.10;99.90;;;;;;5036856;28;20034;-74
2022/05/16 04:44:01;;;;;;;8.55;4.88;;;14.20;99.90;;;;;;5036234;28;20037;-75
2022/05/16 04:46:26;;;;;;;7.10;5.13;;;14.30;99.90;;;;;;5026619;28;20034;-74
2022/05/16 04:48:52;;;;;;;7.38;4.57;;;14.40;99.90;;;;;;5035840;28;20034;-75
2022/05/16 04:51:18;;;;;;;6.93;4.70;;;14.40;99.90;;;;;;5035655;28;20080;-74
2022/05/16 04:53:43;;;;;;;9.05;4.50;;;14.50;99.90;;;;;;5035797;28;20104;-74
2022/05/16 04:56:09;;;;;;;6.80;4.13;;;14.50;99.90;;;;;;5018115;28;20117;-75
2022/05/16 04:58:35;;;;;;;6.32;4.40;;;14.50;99.90;;;;;;5036226;28;20030;-75
2022/05/16 05:01:01;;;;;;;6.65;4.30;;;14.50;99.90;;;;;;5036433;28;20034;-75
2022/05/16 05:03:27;;;;;;;8.98;4.90;;;14.60;99.90;;;;;;5036151;28;20500;-74
2022/05/16 05:05:53;;;;;;;8.52;4.28;;;14.50;99.90;;;;;;5018647;28;20034;-75
2022/05/16 05:08:19;;;;;;;9.07;4.88;;;14.50;99.90;;;;;;5037017;28;20130;-76
2022/05/16 05:16:19;;;;;;;6.72;4.55;;;14.80;99.90;;;;;;5037469;28;20030;-75
2022/05/16 05:18:50;;;;;;;7.78;4.40;;;15.00;99.90;;;;;;5036725;28;20109;-76
2022/05/16 05:21:15;;;;;;;7.85;4.90;;;15.10;99.90;;;;;;5036732;28;20030;-78
2022/05/16 05:23:41;;;;;;;6.85;4.65;;;15.20;99.90;;;;;;5035766;28;20037;-75
2022/05/16 05:26:09;;;;;;;6.75;4.97;;;15.20;99.90;;;;;;5036276;28;20045;-75
2022/05/16 05:28:35;;;;;;;5.85;4.63;;;15.20;99.90;;;;;;5017816;28;20037;-74
2022/05/16 05:31:02;;;;;;;7.85;4.90;;;15.30;99.90;;;;;;5036264;28;20034;-74
2022/05/16 05:33:30;;;;;;;4.88;4.30;;;15.50;99.90;;;;;;5034511;28;20530;-74
2022/05/16 05:35:56;;;;;;;7.80;4.65;;;15.50;99.90;;;;;;5034366;28;20488;-75
2022/05/16 05:38:24;;;;;;;6.70;4.53;;;15.50;99.90;;;;;;5035948;28;20092;-76
2022/05/16 05:40:50;;;;;;;6.57;4.45;;;15.50;99.90;;;;;;5035786;28;20840;-75
2022/05/16 05:43:16;;;;;;;7.20;4.32;;;15.60;99.90;;;;;;5028771;28;20042;-76
2022/05/16 05:45:43;;;;;;;7.82;4.20;;;15.70;99.90;;;;;;5030077;28;20033;-75
2022/05/16 05:48:09;;;;;;;6.90;4.18;;;15.60;99.90;;;;;;5050566;28;20116;-75
2022/05/16 05:50:34;;;;;;;7.63;3.92;;;15.60;99.90;;;;;;5035296;28;20109;-78
2022/05/16 05:53:00;;;;;;;7.13;4.28;;;15.60;99.90;;;;;;5035496;28;20100;-74
2022/05/16 05:55:26;;;;;;;7.15;4.00;;;15.60;99.90;;;;;;5035754;28;20041;-76
2022/05/16 05:57:56;;;;;;;6.45;4.18;;;15.70;99.90;;;;;;5018875;28;20038;-76
2022/05/16 06:00:22;;;;;;;7.10;4.38;;;15.90;99.90;;;;;;5037231;28;20088;-76
2022/05/16 06:02:47;;;;;;;6.75;4.25;;;15.90;99.90;;;;;;5037211;28;20888;-76
2022/05/16 06:05:20;;;;;;;8.85;5.15;;;16.00;99.90;;;;;;5035861;28;20037;-75
2022/05/16 06:07:45;;;;;;;9.02;4.55;;;16.20;99.90;;;;;;5035678;28;20049;-75
2022/05/16 06:10:11;;;;;;;10.75;4.70;;;16.40;99.90;;;;;;5035320;28;20091;-74
2022/05/16 06:12:38;;;;;;;7.82;4.75;;;16.50;99.90;;;;;;5035304;28;20052;-78
2022/05/16 06:15:04;;;;;;;9.00;4.70;;;16.70;99.90;;;;;;5035159;28;20453;-74
2022/05/16 06:17:30;;;;;;;7.25;4.80;;;16.80;99.90;;;;;;5017417;28;20037;-74
2022/05/16 06:19:57;;;;;;;6.65;3.80;;;16.80;99.90;;;;;;5035239;28;20030;-74
2022/05/16 06:22:23;;;;;;;8.80;4.90;;;17.10;99.90;;;;;;5034916;28;20040;-76
2022/05/16 06:27:33;;;;;;;7.55;4.65;;;17.40;99.90;;;;;;5034258;28;20403;-76
2022/05/16 06:29:59;;;;;;;8.75;4.25;;;17.50;99.90;;;;;;5034524;28;20033;-75
2022/05/16 06:32:25;;;;;;;8.02;4.35;;;17.80;99.90;;;;;;5034493;28;20042;-76
2022/05/16 06:34:51;;;;;;;6.18;4.07;;;17.90;99.90;;;;;;5034448;28;20492;-76
2022/05/16 06:37:18;;;;;;;14.45;4.32;;;18.10;99.90;;;;;;5034768;28;20487;-75
2022/05/16 06:39:46;;;;;;;9.45;4.07;;;18.20;99.90;;;;;;5034061;28;20129;-77
2022/05/16 06:42:13;;;;;;;7.47;4.63;;;18.30;99.90;;;;;;5034698;28;20030;-76
2022/05/16 06:44:38;;;;;;;8.80;4.45;;;18.40;99.90;;;;;;5034487;28;20550;-75
2022/05/16 06:47:05;;;;;;;6.45;4.15;;;18.30;99.90;;;;;;5034498;28;20092;-76
2022/05/16 06:49:31;;;;;;;9.77;3.88;;;18.30;99.90;;;;;;5034456;28;20044;-75
2022/05/16 06:51:56;;;;;;;24.65;4.80;;;18.50;99.90;;;;;;5034388;28;20034;-74
2022/05/16 06:54:22;;;;;;;34.72;5.78;;;18.70;99.90;;;;;;5034218;28;20037;-75
2022/05/16 06:56:47;;;;;;;23.85;5.05;;;18.90;99.90;;;;;;5034426;28;20494;-75
2022/05/16 06:59:13;;;;;;;28.52;4.78;;;19.20;99.90;;;;;;5034127;28;20116;-75
2022/05/16 07:01:39;;;;;;;18.63;4.28;;;19.30;99.20;;;;;;5013629;28;20542;-75
2022/05/16 07:04:04;;;;;;;15.82;4.07;;;19.30;99.30;;;;;;5023861;28;20050;-76
2022/05/16 07:06:31;;;;;;;9.02;4.05;;;19.50;99.10;;;;;;5025042;28;20038;-75
2022/05/16 07:08:56;;;;;;;11.13;4.03;;;19.50;99.20;;;;;;5008928;28;20069;-76
2022/05/16 07:11:22;;;;;;;13.80;4.32;;;19.40;98.60;;;;;;5025135;28;20130;-76
2022/05/16 07:13:47;;;;;;;16.77;4.00;;;19.50;98.40;;;;;;5033846;28;20642;-76
2022/05/16 07:16:13;;;;;;;14.90;4.03;;;19.70;98.30;;;;;;5027377;28;20040;-75
2022/05/16 07:18:39;;;;;;;6.85;3.78;;;20.00;97.70;;;;;;5025489;28;20089;-76
2022/05/16 07:21:07;;;;;;;9.60;4.28;;;20.20;97.70;;;;;;5022640;28;20064;-75
2022/05/16 07:23:33;;;;;;;8.30;4.07;;;20.40;97.00;;;;;;5022579;28;20046;-76
2022/05/16 07:28:43;;;;;;;7.80;3.88;;;20.90;97.80;;;;;;5026692;28;20066;-76
2022/05/16 07:31:10;;;;;;;7.35;3.70;;;21.30;97.50;;;;;;5027933;28;20058;-76
2022/05/16 07:33:36;;;;;;;5.63;3.40;;;21.70;94.30;;;;;;5018139;28;20050;-78
2022/05/16 07:36:02;;;;;;;10.70;3.45;;;22.00;94.50;;;;;;5021559;28;20530;-75
2022/05/16 07:38:28;;;;;;;5.50;3.35;;;22.20;94.70;;;;;;5032762;28;20068;-76
2022/05/16 07:40:55;;;;;;;4.63;2.80;;;22.30;93.70;;;;;;5014292;28;20029;-77
2022/05/16 07:43:21;;;;;;;4.68;2.95;;;22.20;94.50;;;;;;5033703;28;20784;-76
2022/05/16 07:45:47;;;;;;;9.35;3.35;;;21.80;94.30;;;;;;5034175;28;20084;-75
2022/05/16 07:48:13;;;;;;;5.75;3.20;;;21.70;94.40;;;;;;5033717;28;20033;-75
2022/05/16 07:50:39;;;;;;;8.43;3.70;;;21.80;95.50;;;;;;5033242;28;20104;-74
2022/05/16 07:53:11;;;;;;;6.90;3.45;;;22.10;94.50;;;;;;5018669;28;20120;-74
2022/05/16 07:55:49;;;;;;;6.25;3.58;;;22.40;94.00;;;;;;5034726;28;20041;-75
2022/05/16 07:58:15;;;;;;;4.18;3.00;;;22.60;93.60;;;;;;5032460;28;20042;-73
2022/05/16 08:00:41;;;;;;;4.18;3.15;;;23.10;93.30;;;;;;5015862;28;20042;-73
2022/05/16 08:03:11;;;;;;;5.70;3.28;;;23.20;93.00;;;;;;5028522;28;20077;-74
2022/05/16 08:05:37;;;;;;;4.85;2.63;;;23.50;92.30;;;;;;5034063;28;20168;-74
2022/05/16 08:10:49;;;;;;;7.75;3.25;;;24.00;91.40;;;;;;5026175;28;20042;-73
2022/05/16 08:13:15;;;;;;;7.60;3.00;;;24.30;91.90;;;;;;5017941;28;20077;-74
2022/05/16 08:15:42;;;;;;;5.75;2.95;;;24.50;90.70;;;;;;5006085;28;20064;-74
2022/05/16 08:18:09;;;;;;;5.75;3.13;;;25.00;89.80;;;;;;5037495;28;20042;-74
2022/05/16 08:20:37;;;;;;;5.55;2.85;;;25.00;87.60;;;;;;5037443;28;20621;-74
2022/05/16 08:23:04;;;;;;;4.95;2.80;;;24.90;87.40;;;;;;5018674;28;20097;-75
2022/05/16 08:25:30;;;;;;;3.63;2.60;;;25.10;87.70;;;;;;5018771;28;20036;-75
2022/05/16 08:27:56;;;;;;;4.55;2.35;;;25.50;85.90;;;;;;5036662;28;20045;-74
2022/05/16 08:30:29;;;;;;;6.97;2.70;;;25.70;81.40;;;;;;5037391;28;20034;-74
2022/05/16 08:33:07;;;;;;;7.00;2.85;;;26.10;82.20;;;;;;5037300;28;20042;-73
2022/05/16 08:35:33;;;;;;;4.05;2.33;;;26.00;82.00;;;;;;5037344;28;20040;-74
2022/05/16 08:41:09;;;;;;;4.22;2.70;;;27.00;78.60;;;;;;5036771;28;20120;-73
2022/05/16 08:43:49;;;;;;;3.97;2.58;;;27.00;75.30;;;;;;5017140;28;20592;-73
2022/05/16 08:46:55;;;;;;;3.08;2.58;;;26.80;78.10;;;;;;5017429;28;20034;-74
2022/05/16 08:49:36;;;;;;;2.85;2.60;;;26.50;77.20;;;;;;5004677;28;20471;-74
2022/05/16 08:52:42;;;;;;;4.57;2.90;;;26.30;79.70;;;;;;5037066;28;20065;-74
2022/05/16 08:55:19;;;;;;;8.73;3.30;;;26.10;77.30;;;;;;5034395;28;20050;-74
2022/05/16 08:57:53;;;;;;;4.85;2.78;;;25.80;79.00;;;;;;5036875;28;20092;-75
2022/05/16 09:00:55;;;;;;;4.32;3.10;;;25.50;78.20;;;;;;5019024;28;20029;-74
2022/05/16 09:03:26;;;;;;;4.97;2.95;;;25.40;82.00;;;;;;4952024;28;20080;-74
2022/05/16 09:06:03;;;;;;;4.88;3.10;;;25.60;81.20;;;;;;5037991;28;20041;-76
2022/05/16 09:08:33;;;;;;;8.50;2.85;;;25.80;83.90;;;;;;5038004;28;20105;-75
2022/05/16 09:11:08;;;;;;;7.95;3.35;;;25.60;82.60;;;;;;5037987;28;20026;-78
2022/05/16 09:14:04;;;;;;;5.43;3.22;;;25.80;81.30;;;;;;5037030;28;20037;-76
2022/05/16 09:16:52;;;;;;;8.38;3.30;;;26.30;82.50;;;;;;5035052;28;20042;-75
2022/05/16 09:19:23;;;;;;;6.30;3.63;;;26.90;78.30;;;;;;5037647;28;20033;-76
2022/05/16 09:22:03;;;;;;;4.40;2.97;;;27.30;77.00;;;;;;5037205;28;20029;-77
2022/05/16 09:24:37;;;;;;;6.80;3.08;;;28.00;77.80;;;;;;5037164;28;20037;-74
2022/05/16 09:28:34;;;;;;;9.15;3.38;;;28.10;76.10;;;;;;5037216;28;20109;-76
2022/05/16 09:30:06;;;;;;;5.45;3.20;;;28.40;74.90;;;;;;5035672;28;20917;-75
2022/05/16 09:32:36;;;;;;;5.68;3.40;;;28.40;72.50;;;;;;5036227;28;20030;-75
2022/05/16 09:35:04;;;;;;;7.32;3.42;;;28.70;71.20;;;;;;5036219;28;20574;-75
2022/05/16 09:37:30;;;;;;;7.55;3.53;;;28.60;71.60;;;;;;5038715;28;20037;-74
2022/05/16 09:39:56;;;;;;;5.82;3.10;;;28.80;70.50;;;;;;5055282;28;20034;-77
2022/05/16 09:42:33;;;;;;;7.60;3.20;;;28.80;67.80;;;;;;5037188;28;20045;-77
2022/05/16 09:45:02;;;;;;;12.20;4.35;;;28.30;67.80;;;;;;5035768;28;20045;-75
2022/05/16 09:47:28;;;;;;;6.28;3.40;;;27.60;69.00;;;;;;5036128;28;20490;-74
2022/05/16 09:50:20;;;;;;;5.50;3.40;;;27.30;71.60;;;;;;5035820;28;20034;-74
2022/05/16 09:52:49;;;;;;;7.55;3.65;;;26.80;71.80;;;;;;5006934;28;20133;-74
2022/05/16 09:55:29;;;;;;;13.82;4.07;;;26.50;74.10;;;;;;5035042;28;20038;-75
2022/05/16 09:57:56;;;;;;;5.45;3.55;;;26.50;74.50;;;;;;5036029;28;20068;-74
2022/05/16 10:00:30;;;;;;;7.10;3.70;;;26.90;73.50;;;;;;5036066;28;20109;-75
2022/05/16 10:03:22;;;;;;;9.15;3.85;;;26.80;76.00;;;;;;5022045;28;20052;-75
2022/05/16 10:05:51;;;;;;;6.00;4.15;;;27.00;75.20;;;;;;5018705;28;20042;-75
2022/05/16 10:08:30;;;;;;;20.40;5.57;;;27.30;76.40;;;;;;5037872;28;20041;-76
2022/05/16 10:10:57;;;;;;;7.45;3.72;;;27.60;72.00;;;;;;5037162;28;20025;-75
2022/05/16 10:13:25;;;;;;;8.15;3.95;;;28.10;72.00;;;;;;5018011;28;20045;-74
2022/05/16 10:15:54;;;;;;;10.15;4.07;;;28.40;70.70;;;;;;5035440;28;20415;-75
2022/05/16 10:18:22;;;;;;;6.20;3.85;;;28.30;72.60;;;;;;5035351;28;20121;-75
2022/05/16 10:21:14;;;;;;;13.25;4.18;;;28.40;75.20;;;;;;5017503;28;20041;-75
2022/05/16 10:23:44;;;;;;;8.20;4.45;;;28.50;69.30;;;;;;5034160;28;20464;-75
2022/05/16 10:26:14;;;;;;;7.90;3.67;;;27.80;71.00;;;;;;5035626;28;20105;-75
2022/05/16 10:28:51;;;;;;;6.28;3.65;;;27.70;70.80;;;;;;5035270;28;20048;-75
2022/05/16 10:34:40;;;;;;;7.97;4.32;;;27.30;70.30;;;;;;5033572;28;20048;-75
2022/05/16 10:37:07;;;;;;;8.07;3.97;;;27.20;72.50;;;;;;5017273;28;20057;-76
2022/05/16 10:39:35;;;;;;;8.63;3.80;;;27.70;72.60;;;;;;5036102;28;20065;-75
2022/05/16 10:42:10;;;;;;;8.93;3.78;;;27.90;70.60;;;;;;5035971;28;20034;-76
2022/05/16 10:45:17;;;;;;;8.10;4.35;;;27.80;70.40;;;;;;5035080;28;20038;-76
2022/05/16 10:48:00;;;;;;;9.30;3.67;;;27.50;71.00;;;;;;4918689;29;20056;-75
2022/05/16 10:50:31;;;;;;;9.85;4.00;;;26.70;73.60;;;;;;4935486;29;20108;-75
2022/05/16 10:53:06;;;;;;;7.57;4.38;;;26.80;74.50;;;;;;4995358;28;20496;-75
2022/05/16 10:56:18;;;;;;;12.95;4.10;;;27.20;75.30;;;;;;5017010;28;20045;-75
2022/05/16 10:59:01;;;;;;;11.20;4.00;;;27.10;75.70;;;;;;5016930;28;20037;-75
2022/05/16 11:01:41;;;;;;;7.65;4.20;;;27.00;75.80;;;;;;5035276;28;20038;-75
2022/05/16 11:04:38;;;;;;;8.57;3.92;;;26.60;75.20;;;;;;5034600;28;20089;-75
2022/05/16 11:07:15;;;;;;;9.65;3.83;;;26.40;76.60;;;;;;5035342;28;20527;-75
2022/05/16 11:10:13;;;;;;;8.85;3.80;;;26.10;77.00;;;;;;5016639;28;20037;-77
2022/05/16 11:12:54;;;;;;;14.45;3.90;;;25.90;78.00;;;;;;5034882;28;20041;-76
2022/05/16 11:15:31;;;;;;;7.15;3.10;;;25.80;77.30;;;;;;5034356;28;20038;-76
2022/05/16 11:18:27;;;;;;;13.73;3.10;;;25.80;75.90;;;;;;5034955;28;20038;-75
2022/05/16 11:21:13;;;;;;;9.23;3.15;;;25.90;76.10;;;;;;5030481;28;20052;-75
2022/05/16 11:23:53;;;;;;;7.85;2.90;;;26.30;75.30;;;;;;5034307;28;20037;-75
2022/05/16 11:26:33;;;;;;;10.98;2.58;;;26.50;75.20;;;;;;5036434;28;20038;-74
2022/05/16 11:29:18;;;;;;;11.48;2.58;;;26.50;74.20;;;;;;5032262;28;20480;-77
2022/05/16 11:32:16;;;;;;;8.15;2.67;;;26.30;73.60;;;;;;5020239;28;20041;-75
2022/05/16 11:35:05;;;;;;;5.93;2.13;;;25.70;76.30;;;;;;5037743;28;20049;-77
2022/05/16 11:37:49;;;;;;;6.13;2.10;;;25.90;74.70;;;;;;5038403;28;20032;-77
2022/05/16 11:40:30;;;;;;;7.53;1.95;;;26.20;74.60;;;;;;5037940;28;20117;-77
2022/05/16 11:43:18;;;;;;;18.50;2.85;;;26.50;72.70;;;;;;5038119;28;20450;-79
2022/05/16 11:46:07;;;;;;;4.72;1.70;;;26.40;71.70;;;;;;5037816;28;20113;-78
2022/05/16 11:49:11;;;;;;;19.90;2.53;;;26.80;70.40;;;;;;5019537;28;20426;-78
2022/05/16 11:51:48;;;;;;;8.30;2.10;;;26.80;69.70;;;;;;5038037;28;20026;-75
2022/05/16 11:54:17;;;;;;;5.65;1.60;;;27.00;71.90;;;;;;5037533;28;20069;-75
2022/05/16 12:02:33;;;;;;;6.07;1.80;;;27.70;70.70;;;;;;5037846;28;20087;-75
2022/05/16 12:05:01;;;;;;;3.92;1.60;;;28.10;66.70;;;;;;5037283;28;20033;-76
2022/05/16 12:07:31;;;;;;;7.38;1.85;;;27.70;68.20;;;;;;5019809;28;20477;-76
2022/05/16 12:10:08;;;;;;;7.90;2.03;;;27.30;70.00;;;;;;5037524;28;20033;-77
2022/05/16 12:12:43;;;;;;;2.55;1.20;;;27.50;68.50;;;;;;5037498;28;20041;-76
2022/05/16 12:15:24;;;;;;;7.05;1.95;;;27.50;68.70;;;;;;5018860;28;20100;-76
2022/05/16 12:17:52;;;;;;;11.60;1.95;;;27.50;71.80;;;;;;5037013;28;20041;-76
2022/05/16 12:20:42;;;;;;;4.38;1.60;;;27.40;70.30;;;;;;5036983;28;20088;-75
2022/05/16 12:23:12;;;;;;;3.88;1.80;;;27.20;69.30;;;;;;5019205;28;20586;-77
2022/05/16 12:25:40;;;;;;;4.55;1.60;;;26.40;70.10;;;;;;4998912;28;20066;-76
2022/05/16 12:28:12;;;;;;;3.10;1.30;;;26.30;72.40;;;;;;5007783;28;20034;-76
2022/05/16 12:30:37;;;;;;;3.67;1.48;;;26.10;72.50;;;;;;5009380;28;20129;-76
2022/05/16 12:33:23;;;;;;;4.88;1.60;;;26.00;73.40;;;;;;5006614;28;20114;-76
2022/05/16 12:35:53;;;;;;;4.88;1.55;;;25.60;72.70;;;;;;5016864;28;20042;-77
2022/05/16 12:38:21;;;;;;;8.80;1.60;;;25.60;74.70;;;;;;5013507;28;20061;-75
2022/05/16 12:41:05;;;;;;;4.25;1.38;;;25.30;74.80;;;;;;5013807;28;20536;-76
2022/05/16 12:44:23;;;;;;;3.05;1.05;;;24.90;74.60;;;;;;5014601;28;20058;-76
2022/05/16 12:47:17;;;;;;;4.75;1.20;;;24.40;75.10;;;;;;4995855;28;20125;-76
2022/05/16 12:50:11;;;;;;;4.68;1.40;;;23.90;78.00;;;;;;5013562;28;20049;-77
2022/05/16 12:52:36;;;;;;;5.78;1.40;;;23.60;78.90;;;;;;5023702;28;20509;-75
2022/05/16 12:55:32;;;;;;;4.90;1.55;;;23.00;82.10;;;;;;5033966;28;20121;-75
2022/05/16 12:58:12;;;;;;;5.13;1.92;;;22.70;83.70;;;;;;5017661;28;20870;-74
2022/05/16 13:01:19;;;;;;;6.53;1.90;;;22.50;85.30;;;;;;5024150;28;20108;-74
2022/05/16 13:04:10;;;;;;;12.13;2.00;;;22.30;86.20;;;;;;5015193;28;20046;-75
2022/05/16 13:06:50;;;;;;;4.35;1.70;;;22.10;87.70;;;;;;5017148;28;20038;-76
2022/05/16 13:09:59;;;;;;;3.53;1.70;;;21.90;89.00;;;;;;4998316;28;20041;-76
2022/05/16 13:12:45;;;;;;;3.65;1.73;;;21.60;91.20;;;;;;4968761;28;20109;-77
2022/05/16 13:15:24;;;;;;;4.53;2.35;;;21.10;93.30;;;;;;4986215;28;20049;-76
2022/05/16 13:17:58;;;;;;;5.68;2.08;;;20.80;96.80;;;;;;5013804;28;20097;-77
2022/05/16 13:20:33;;;;;;;8.35;2.30;;;20.40;98.30;;;;;;5017672;28;20034;-75
2022/05/16 13:22:59;;;;;;;4.63;2.42;;;19.80;99.90;;;;;;5016435;28;20105;-77
2022/05/16 13:25:27;;;;;;;4.78;2.28;;;19.10;99.90;;;;;;5014633;28;20045;-76
2022/05/16 13:30:41;;;;;;;4.90;2.30;;;18.60;99.90;;;;;;5005573;28;20121;-76
2022/05/16 13:33:30;;;;;;;6.72;2.50;;;18.70;99.90;;;;;;5003014;28;20042;-78
2022/05/16 13:36:21;;;;;;;6.07;2.75;;;19.00;99.90;;;;;;4996855;28;20062;-77
2022/05/16 13:38:52;;;;;;;6.25;2.85;;;19.30;99.90;;;;;;4978777;28;20574;-79
2022/05/16 13:41:28;;;;;;;6.50;2.90;;;19.50;99.90;;;;;;4995472;28;20049;-76
2022/05/16 13:43:53;;;;;;;4.57;2.35;;;20.10;99.90;;;;;;5012779;28;20050;-76
2022/05/16 13:46:20;;;;;;;2.88;1.90;;;20.40;99.90;;;;;;5008027;28;20041;-78
2022/05/16 13:48:55;;;;;;;5.43;2.50;;;20.90;99.90;;;;;;5008170;28;20508;-77
2022/05/16 13:51:21;;;;;;;5.35;2.22;;;21.70;99.90;;;;;;4988845;28;20046;-78
2022/05/16 13:53:47;;;;;;;4.15;2.40;;;22.20;99.90;;;;;;4998766;28;20385;-79
2022/05/16 13:56:12;;;;;;;4.43;2.20;;;23.20;99.90;;;;;;5016521;28;20492;-78
2022/05/16 13:58:38;;;;;;;5.00;2.03;;;24.50;99.90;;;;;;5031318;28;20038;-78
2022/05/16 14:01:12;;;;;;;5.15;2.20;;;25.50;99.90;;;;;;5007151;28;20417;-75
2022/05/16 14:03:38;;;;;;;4.40;2.10;;;26.00;99.90;;;;;;5005897;28;20227;-75
2022/05/16 14:06:04;;;;;;;4.30;2.20;;;26.20;99.90;;;;;;4988170;28;20412;-75
2022/05/16 14:08:43;;;;;;;4.50;2.08;;;26.40;99.90;;;;;;5017888;28;20045;-77
2022/05/16 14:11:15;;;;;;;7.32;2.38;;;26.80;99.90;;;;;;5015842;28;20058;-76
2022/05/16 14:13:44;;;;;;;6.85;2.28;;;27.50;99.90;;;;;;5014584;28;20514;-77
2022/05/16 14:16:17;;;;;;;4.53;2.30;;;27.50;98.60;;;;;;5016257;28;20031;-75
2022/05/16 14:18:46;;;;;;;5.10;2.13;;;27.70;95.50;;;;;;5016214;28;20101;-75
2022/05/16 14:21:19;;;;;;;6.25;2.63;;;27.40;95.40;;;;;;4997977;28;20034;-76
2022/05/16 14:23:58;;;;;;;5.47;2.40;;;26.90;96.40;;;;;;5014957;28;20492;-76
2022/05/16 14:26:27;;;;;;;6.05;2.10;;;26.00;96.30;;;;;;4997592;28;20483;-76
2022/05/16 14:28:55;;;;;;;5.20;2.17;;;25.30;95.80;;;;;;5015602;28;20766;-76
2022/05/16 14:31:39;;;;;;;5.00;2.53;;;24.60;97.60;;;;;;5015766;28;20039;-79
2022/05/16 14:34:40;;;;;;;4.78;2.35;;;24.30;98.70;;;;;;5019275;28;20062;-77
2022/05/16 14:37:22;;;;;;;7.53;2.30;;;24.00;98.80;;;;;;5017443;28;20488;-78
2022/05/16 14:40:04;;;;;;;7.00;2.42;;;23.50;99.90;;;;;;4998140;28;20045;-77
2022/05/16 14:42:30;;;;;;;7.60;2.70;;;23.30;99.90;;;;;;4997490;28;20038;-76
2022/05/16 14:45:16;;;;;;;4.95;2.47;;;23.00;99.90;;;;;;5015222;28;20042;-76
2022/05/16 14:47:50;;;;;;;7.20;2.40;;;22.80;99.90;;;;;;4997112;28;20042;-78
2022/05/16 14:50:19;;;;;;;5.18;2.70;;;23.00;99.90;;;;;;5014380;28;20092;-76
2022/05/16 14:53:05;;;;;;;6.07;3.28;;;23.20;99.90;;;;;;5014520;28;20041;-76
2022/05/16 14:55:37;;;;;;;4.25;3.00;;;23.40;99.90;;;;;;4988495;28;20062;-76
2022/05/16 14:58:07;;;;;;;7.60;2.72;;;23.60;99.90;;;;;;5004375;28;20066;-77
2022/05/16 15:06:05;;;;;;;4.95;2.47;;;24.20;99.10;;;;;;5005168;28;20042;-75
2022/05/16 15:08:35;;;;;;;6.80;2.70;;;24.70;99.90;;;;;;5001115;28;20039;-76
2022/05/16 15:11:02;;;;;;;6.68;3.15;;;24.70;98.70;;;;;;4995492;28;20096;-76
2022/05/16 15:13:29;;;;;;;6.82;3.00;;;25.20;98.40;;;;;;5005269;28;20170;-76
2022/05/16 15:15:55;;;;;;;6.43;2.50;;;25.10;97.40;;;;;;5014308;28;20039;-76
2022/05/16 15:18:21;;;;;;;7.55;2.60;;;25.40;95.30;;;;;;5005027;28;20086;-76
2022/05/16 15:20:48;;;;;;;4.40;2.90;;;26.50;95.90;;;;;;5004582;28;20378;-76
2022/05/16 15:23:17;;;;;;;4.03;2.50;;;28.00;94.40;;;;;;5002047;28;20038;-77
2022/05/16 15:25:43;;;;;;;5.35;2.50;;;28.50;90.90;;;;;;5008768;28;20039;-77
2022/05/16 15:28:09;;;;;;;4.70;2.40;;;27.80;91.10;;;;;;5010582;28;20042;-75
2022/05/16 15:30:40;;;;;;;4.05;2.30;;;27.40;91.80;;;;;;5004574;28;20031;-78
2022/05/16 15:33:07;;;;;;;4.63;2.60;;;26.40;91.90;;;;;;5005386;28;20038;-76
2022/05/16 15:35:35;;;;;;;4.30;2.42;;;25.90;94.10;;;;;;5013854;28;20543;-75
2022/05/16 15:38:00;;;;;;;5.03;2.78;;;25.30;94.00;;;;;;5014519;28;20038;-77
2022/05/16 15:40:26;;;;;;;7.95;2.13;;;24.90;95.30;;;;;;4988262;28;20042;-74
2022/05/16 15:42:53;;;;;;;6.05;2.20;;;24.50;94.30;;;;;;5013576;28;20118;-75
2022/05/16 15:45:20;;;;;;;3.53;1.92;;;24.20;92.20;;;;;;5013738;28;20113;-77
2022/05/16 15:47:49;;;;;;;5.20;1.80;;;24.50;92.90;;;;;;5014924;28;20038;-75
2022/05/16 15:50:16;;;;;;;2.80;1.55;;;25.90;88.40;;;;;;5014138;28;20066;-78
2022/05/16 15:52:45;;;;;;;3.92;1.55;;;26.10;86.80;;;;;;5014422;28;20042;-78
2022/05/16 15:55:14;;;;;;;6.90;1.70;;;25.10;86.80;;;;;;4997672;28;20093;-77
2022/05/16 15:57:40;;;;;;;5.40;1.88;;;24.40;90.50;;;;;;5017075;28;20031;-79
2022/05/16 16:00:09;;;;;;;4.72;2.00;;;24.00;90.90;;;;;;5014166;28;20030;-77
2022/05/16 16:02:44;;;;;;;3.42;1.77;;;24.00;91.10;;;;;;4994733;28;20046;-78
2022/05/16 16:10:54;;;;;;;13.45;4.28;;;23.30;94.00;;;;;;4979663;28;20039;-76
2022/05/16 16:13:26;;;;;;;4.15;1.85;;;23.10;93.60;;;;;;5017233;28;20097;-78
2022/05/16 16:15:53;;;;;;;3.95;1.75;;;22.80;93.80;;;;;;5002360;28;20030;-77
2022/05/16 16:18:19;;;;;;;3.13;2.08;;;22.70;93.90;;;;;;5019326;28;20042;-81
2022/05/16 16:20:47;;;;;;;5.35;2.50;;;22.70;93.80;;;;;;5021776;28;20034;-83
2022/05/16 16:23:17;;;;;;;5.28;2.10;;;22.60;94.10;;;;;;5021399;28;20034;-82
2022/05/16 16:25:42;;;;;;;4.82;1.88;;;22.50;94.50;;;;;;5019102;28;20038;-81
2022/05/16 16:28:11;;;;;;;6.63;1.98;;;22.40;94.80;;;;;;5024272;28;20480;-80
2022/05/16 16:30:40;;;;;;;4.55;2.05;;;22.30;94.80;;;;;;5023740;28;20043;-78
2022/05/16 16:33:12;;;;;;;4.68;2.15;;;22.00;95.30;;;;;;5018789;28;20034;-79
2022/05/16 16:35:38;;;;;;;10.93;4.88;;;21.90;95.20;;;;;;5020146;28;20046;-77
2022/05/16 16:38:07;;;;;;;7.90;2.92;;;21.90;95.40;;;;;;5019676;28;20035;-77
2022/05/16 16:40:42;;;;;;;4.03;2.00;;;21.90;94.90;;;;;;4992806;28;20034;-76
2022/05/16 16:43:33;;;;;;;5.57;1.98;;;22.10;95.40;;;;;;4992212;28;20034;-78
2022/05/16 16:46:16;;;;;;;7.47;2.15;;;22.00;94.90;;;;;;5020301;28;20046;-80
2022/05/16 16:48:43;;;;;;;4.13;2.22;;;22.00;95.10;;;;;;5019532;28;20038;-77
2022/05/16 16:59:44;;;;;;;5.28;2.08;;;21.60;95.80;;;;;;5017593;28;20098;-79
2022/05/16 17:02:17;;;;;;;5.78;2.42;;;21.70;96.00;;;;;;5022888;28;20500;-78
2022/05/16 17:04:45;;;;;;;4.25;2.25;;;21.70;95.00;;;;;;5021319;28;20050;-80
2022/05/16 17:07:11;;;;;;;3.75;2.03;;;21.80;94.80;;;;;;5017605;28;20066;-76
2022/05/16 17:09:40;;;;;;;4.82;1.80;;;21.80;94.50;;;;;;5017406;28;20057;-76
2022/05/16 17:12:07;;;;;;;3.33;2.15;;;21.70;94.70;;;;;;5021153;28;20026;-79
2022/05/16 17:14:33;;;;;;;6.07;2.17;;;21.70;94.80;;;;;;5004377;28;20066;-77
2022/05/16 17:17:00;;;;;;;5.63;2.00;;;21.50;95.30;;;;;;5019108;28;20018;-76
2022/05/16 17:19:26;;;;;;;4.00;2.60;;;21.40;95.10;;;;;;5005361;28;20125;-77
2022/05/16 17:21:52;;;;;;;4.72;2.50;;;21.40;95.60;;;;;;5020776;28;20105;-78
2022/05/16 17:24:17;;;;;;;5.22;2.05;;;21.40;95.50;;;;;;5018709;28;20097;-77
2022/05/16 17:26:46;;;;;;;5.35;2.25;;;21.30;96.20;;;;;;5018574;28;20070;-77
2022/05/16 17:29:16;;;;;;;4.70;2.25;;;21.30;96.00;;;;;;5016867;28;20049;-78
2022/05/16 17:31:43;;;;;;;5.07;2.63;;;21.30;96.20;;;;;;5017349;28;20026;-76
2022/05/16 17:34:09;;;;;;;4.28;1.95;;;21.30;96.80;;;;;;4998778;28;20046;-76
2022/05/16 17:36:36;;;;;;;4.68;2.03;;;21.20;96.60;;;;;;5000483;28;20488;-78
2022/05/16 17:39:02;;;;;;;5.63;2.50;;;21.10;96.80;;;;;;5017494;28;20553;-77
2022/05/16 17:41:29;;;;;;;4.55;2.17;;;21.10;97.10;;;;;;5016685;28;20101;-77
2022/05/16 17:43:55;;;;;;;3.67;2.00;;;21.00;96.80;;;;;;5016221;28;20069;-76
2022/05/16 17:46:21;;;;;;;5.88;2.10;;;21.00;97.10;;;;;;5016568;28;20607;-76
2022/05/16 17:48:46;;;;;;;5.63;2.00;;;21.00;97.10;;;;;;5016159;28;20048;-78
2022/05/16 17:51:24;;;;;;;3.53;2.13;;;20.90;97.20;;;;;;5015430;28;20121;-79
2022/05/16 17:53:51;;;;;;;7.20;2.20;;;20.90;97.30;;;;;;5015195;28;20038;-76
2022/05/16 17:56:17;;;;;;;3.63;2.20;;;20.80;97.50;;;;;;5015955;28;20121;-81
2022/05/16 17:58:43;;;;;;;3.03;2.10;;;20.80;97.70;;;;;;5015924;28;20561;-76
2022/05/16 18:01:11;;;;;;;4.97;2.20;;;20.70;97.80;;;;;;5015522;28;20057;-76
2022/05/16 18:03:36;;;;;;;6.93;2.50;;;20.70;98.00;;;;;;5019649;28;20940;-76